createdAt,value
2017-02-27T00:01:33.922Z,100
2017-02-27T00:11:48.133Z,100
2017-02-27T00:22:02.894Z,100
2017-02-27T00:32:17.192Z,100
2017-02-27T00:42:31.091Z,100
2017-02-27T00:52:44.840Z,100
2017-02-27T01:02:58.664Z,100
2017-02-27T01:13:13.185Z,100
2017-02-27T01:23:27.368Z,100
2017-02-27T01:33:41.479Z,100
2017-02-27T01:54:07.757Z,99.8
2017-02-27T02:04:21.629Z,100
2017-02-27T02:14:35.968Z,100
2017-02-27T02:24:49.049Z,99.7
2017-02-27T02:35:04.037Z,99.4
2017-02-27T02:45:18.064Z,99.7
2017-02-27T02:55:32.838Z,99.2
2017-02-27T03:05:47.881Z,99.2
2017-02-27T03:16:01.633Z,99.1
2017-02-27T03:26:15.996Z,99.5
2017-02-27T03:36:30.741Z,99.5
2017-02-27T03:46:45.761Z,99.5
2017-02-27T03:56:59.398Z,99.7
2017-02-27T04:07:13.476Z,99
2017-02-27T04:17:26.640Z,99
2017-02-27T04:27:41.745Z,98.9
2017-02-27T04:37:55.000Z,98.9
2017-02-27T04:48:09.635Z,98.2
2017-02-27T04:58:24.692Z,98.4
2017-02-27T05:08:38.825Z,99.1
2017-02-27T05:18:53.346Z,99.2
2017-02-27T05:29:08.161Z,99
2017-02-27T05:39:21.373Z,99.7
2017-02-27T05:49:35.918Z,99.4
2017-02-27T05:59:49.265Z,99.1
2017-02-27T06:10:03.393Z,99.3
2017-02-27T06:20:17.044Z,99.3
2017-02-27T06:30:30.759Z,99.4
2017-02-27T06:40:44.969Z,99.5
2017-02-27T06:50:59.921Z,99.3
2017-02-27T07:01:13.909Z,99.5
2017-02-27T07:11:27.127Z,99.5
2017-02-27T07:21:42.012Z,99.3
2017-02-27T07:31:56.504Z,99.1
2017-02-27T07:42:10.275Z,99
2017-02-27T07:52:23.359Z,98.7
2017-02-27T08:02:38.530Z,98.7
2017-02-27T08:12:51.874Z,98.5
2017-02-27T08:23:06.790Z,97.6
2017-02-27T08:33:20.423Z,97.5
2017-02-27T08:43:34.172Z,96.3
2017-02-27T08:53:48.993Z,96.5
2017-02-27T09:04:03.178Z,96.6
2017-02-27T09:14:17.046Z,94.8
2017-02-27T09:24:32.064Z,94.7
2017-02-27T09:34:46.223Z,94.5
2017-02-27T09:44:59.435Z,93.9
2017-02-27T09:55:14.178Z,93.3
2017-02-27T10:05:28.969Z,93.3
2017-02-27T10:15:43.400Z,92.5
2017-02-27T10:25:57.457Z,91.6
2017-02-27T10:36:12.381Z,90.9
2017-02-27T10:46:26.350Z,90.6
2017-02-27T10:56:40.706Z,90.1
2017-02-27T11:06:55.875Z,89.9
2017-02-27T11:17:09.487Z,89.9
2017-02-27T11:27:23.926Z,90.1
2017-02-27T11:37:37.458Z,90.1
2017-02-27T11:47:51.728Z,90.1
2017-02-27T11:58:06.314Z,89.5
2017-02-27T12:08:19.592Z,89.4
2017-02-27T12:18:33.980Z,88.6
2017-02-27T12:28:47.455Z,89.2
2017-02-27T12:39:01.307Z,88.5
2017-02-27T12:49:14.484Z,87.9
2017-02-27T12:59:27.964Z,88.4
2017-02-27T13:09:41.541Z,88.1
2017-02-27T13:19:55.377Z,87.7
2017-02-27T13:30:10.493Z,87.7
2017-02-27T13:40:24.190Z,87
2017-02-27T13:50:38.416Z,87.1
2017-02-27T14:00:51.766Z,87.6
2017-02-27T14:11:05.241Z,87.4
2017-02-27T14:21:20.580Z,86.6
2017-02-27T14:31:35.042Z,87.3
2017-02-27T14:41:48.742Z,86.9
2017-02-27T14:52:02.770Z,86.7
2017-02-27T15:02:17.110Z,86.3
2017-02-27T15:12:31.120Z,86.2
2017-02-27T15:22:45.033Z,85.2
2017-02-27T15:33:00.073Z,84.6
2017-02-27T15:43:14.049Z,83.7
2017-02-27T15:53:28.399Z,83.9
2017-02-27T16:03:42.233Z,82.7
2017-02-27T16:13:56.280Z,82.6
2017-02-27T16:24:10.728Z,81.8
2017-02-27T16:34:24.032Z,82
2017-02-27T16:44:37.465Z,82.2
2017-02-27T16:54:51.094Z,83.4
2017-02-27T17:05:04.112Z,84.1
2017-02-27T17:15:17.889Z,84.3
2017-02-27T17:25:31.840Z,85.9
2017-02-27T17:35:46.627Z,91.2
2017-02-27T17:46:01.444Z,95.4
2017-02-27T17:56:14.491Z,100
2017-02-27T18:16:42.542Z,100
2017-02-27T18:26:55.626Z,100
2017-02-27T18:37:09.974Z,100
2017-02-27T18:47:23.809Z,100
2017-02-27T19:07:50.668Z,100
2017-02-27T19:18:05.112Z,100
2017-02-27T19:28:18.671Z,100
2017-02-27T19:38:31.973Z,100
2017-02-27T19:48:46.656Z,100
2017-02-27T19:59:01.710Z,100
2017-02-27T20:09:15.266Z,100
2017-02-27T20:19:29.207Z,100
2017-02-27T20:29:43.076Z,100
2017-02-27T20:39:57.313Z,100
2017-02-27T20:50:12.097Z,100
2017-02-27T21:00:25.658Z,100
2017-02-27T21:10:40.370Z,100
2017-02-27T21:20:54.207Z,100
2017-02-27T21:31:08.922Z,100
2017-02-27T21:41:22.988Z,100
2017-02-27T21:51:36.654Z,100
2017-02-27T22:01:51.840Z,100
2017-02-27T22:12:05.218Z,100
2017-02-27T22:22:18.639Z,100
2017-02-27T22:32:33.019Z,100
2017-02-27T22:42:47.924Z,99.6
2017-02-27T22:53:02.933Z,99.5
2017-02-27T23:03:16.812Z,98.9
2017-02-27T23:13:30.668Z,98.3
2017-02-27T23:23:44.711Z,97.9
2017-02-27T23:33:59.608Z,96.9
2017-02-27T23:44:13.534Z,96.5
2017-02-27T23:54:27.502Z,96.1
